Time;durP1;ratioP1;P1;durP2;ratioP2;P2;SDS_P1;SDS_P2;PMS_P1;PMS_P2;Temp;Humidity;BMP_temperature;BMP_pressure;BME280_temperature;BME280_humidity;BME280_pressure;Samples;Min_cycle;Max_cycle;Signal;HPM_P1;HPM_P2
2024/03/29 00:00:44;;;;;;;10.40;4.45;;;;;;;9.34;94.60;99215.85;1725506;83;21034;-80
2024/03/29 00:03:12;;;;;;;10.40;4.40;;;;;;;9.31;94.94;99208.09;1725599;83;21097;-80
2024/03/29 00:05:41;;;;;;;8.38;4.45;;;;;;;9.27;95.22;99203.28;1725444;82;21508;-80
2024/03/29 00:08:10;;;;;;;12.10;5.17;;;;;;;9.21;95.42;99199.53;1725426;83;21014;-80
2024/03/29 00:10:38;;;;;;;10.18;4.83;;;;;;;9.17;95.66;99193.66;1725434;83;21564;-80
2024/03/29 00:13:07;;;;;;;9.95;4.70;;;;;;;9.17;95.89;99196.39;1725689;83;21011;-80
2024/03/29 00:15:35;;;;;;;11.15;4.40;;;;;;;9.15;96.11;99199.03;1725449;82;21505;-80
2024/03/29 00:18:03;;;;;;;11.40;4.50;;;;;;;9.12;96.28;99202.20;1725483;83;21047;-80
2024/03/29 00:20:32;;;;;;;9.90;4.47;;;;;;;9.03;96.27;99201.58;1725461;81;21003;-80
2024/03/29 00:23:00;;;;;;;12.53;5.62;;;;;;;8.96;96.39;99199.94;1725565;83;21015;-81
2024/03/29 00:25:28;;;;;;;12.13;5.85;;;;;;;8.92;96.65;99203.63;1725780;82;21098;-81
2024/03/29 00:27:57;;;;;;;16.65;5.62;;;;;;;8.90;96.91;99207.10;1725665;81;21533;-80
2024/03/29 00:30:25;;;;;;;11.10;5.53;;;;;;;8.87;97.12;99203.44;1725543;83;21055;-81
2024/03/29 00:32:53;;;;;;;9.80;4.60;;;;;;;8.83;97.29;99191.27;1725371;82;21095;-80
2024/03/29 00:35:22;;;;;;;12.15;5.35;;;;;;;8.84;97.64;99186.95;1725729;83;21098;-80
2024/03/29 00:37:51;;;;;;;11.88;4.62;;;;;;;8.88;98.04;99190.93;1725549;83;20995;-80
2024/03/29 00:40:19;;;;;;;11.40;5.08;;;;;;;8.91;98.24;99185.56;1725597;83;21034;-79
2024/03/29 00:42:48;;;;;;;11.75;4.60;;;;;;;8.94;98.56;99186.49;1725381;81;21078;-79
2024/03/29 00:45:16;;;;;;;9.88;4.55;;;;;;;9.00;98.95;99197.92;1725533;83;21517;-80
2024/03/29 00:47:46;;;;;;;12.60;4.30;;;;;;;9.06;99.44;99201.67;1719033;81;21055;-80
2024/03/29 00:50:15;;;;;;;9.15;4.20;;;;;;;9.15;99.94;99196.30;1720363;83;21173;-80
2024/03/29 00:52:44;;;;;;;8.68;4.03;;;;;;;9.21;100.00;99200.37;1720448;83;21174;-79
2024/03/29 00:55:12;;;;;;;11.50;4.35;;;;;;;9.26;100.00;99206.55;1720502;83;21051;-79
2024/03/29 00:57:40;;;;;;;11.33;4.40;;;;;;;9.32;100.00;99208.93;1720774;83;21058;-80
2024/03/29 01:00:10;;;;;;;7.10;4.03;;;;;;;9.38;100.00;99211.62;1720366;82;21038;-79
2024/03/29 01:02:39;;;;;;;10.53;3.90;;;;;;;9.43;100.00;99208.23;1720458;83;21054;-80
2024/03/29 01:05:08;;;;;;;16.25;4.10;;;;;;;9.47;100.00;99210.31;1720347;82;20979;-80
2024/03/29 01:07:36;;;;;;;11.45;5.25;;;;;;;9.50;100.00;99217.23;1720347;83;21039;-81
2024/03/29 01:10:06;;;;;;;8.53;4.90;;;;;;;9.52;100.00;99208.28;1720517;82;21089;-80
2024/03/29 01:12:35;;;;;;;11.65;4.40;;;;;;;9.52;100.00;99205.02;1720161;83;21047;-80
2024/03/29 01:15:04;;;;;;;9.58;4.75;;;;;;;9.54;100.00;99208.37;1720384;83;21458;-80
2024/03/29 01:17:33;;;;;;;12.47;4.62;;;;;;;9.56;100.00;99207.31;1720330;82;21054;-81
2024/03/29 01:20:01;;;;;;;11.08;4.75;;;;;;;9.53;99.81;99208.59;1720243;83;21525;-79
2024/03/29 01:22:30;;;;;;;12.28;4.80;;;;;;;9.54;99.76;99200.70;1720448;83;21467;-79
2024/03/29 01:24:58;;;;;;;10.18;5.25;;;;;;;9.56;99.59;99208.67;1720576;83;21074;-80
2024/03/29 01:27:26;;;;;;;9.28;4.60;;;;;;;9.57;99.34;99207.09;1720504;83;21071;-80
2024/03/29 01:29:54;;;;;;;10.45;4.72;;;;;;;9.54;99.04;99211.11;1720395;83;21038;-79
2024/03/29 01:32:23;;;;;;;10.50;4.40;;;;;;;9.52;98.72;99211.86;1720247;82;21137;-79
2024/03/29 01:34:51;;;;;;;12.33;4.60;;;;;;;9.49;98.40;99219.66;1720284;82;21956;-80
2024/03/29 01:37:19;;;;;;;10.13;4.30;;;;;;;9.41;98.17;99204.35;1720432;83;21007;-80
2024/03/29 01:39:48;;;;;;;11.45;5.20;;;;;;;9.36;97.98;99206.91;1720519;82;21089;-80
2024/03/29 01:42:16;;;;;;;9.03;4.50;;;;;;;9.30;97.86;99196.02;1720425;83;21066;-79
2024/03/29 01:44:44;;;;;;;10.35;5.15;;;;;;;9.27;97.76;99196.45;1720351;83;21067;-79
2024/03/29 01:47:12;;;;;;;11.12;4.67;;;;;;;9.22;97.72;99198.47;1722347;83;21063;-80
2024/03/29 01:49:41;;;;;;;10.98;4.60;;;;;;;9.19;97.77;99197.02;1725436;83;21070;-80
2024/03/29 01:52:09;;;;;;;12.60;5.08;;;;;;;9.13;97.76;99196.52;1725408;83;21038;-80
2024/03/29 01:54:37;;;;;;;10.93;4.92;;;;;;;9.06;97.57;99206.61;1725351;83;21089;-79
2024/03/29 01:57:06;;;;;;;11.08;4.67;;;;;;;9.01;97.71;99208.31;1725811;83;21483;-80
2024/03/29 01:59:34;;;;;;;11.15;4.53;;;;;;;8.98;97.81;99200.56;1725621;83;21105;-80
2024/03/29 02:02:02;;;;;;;10.63;4.58;;;;;;;8.96;97.79;99200.77;1725401;82;21489;-80
2024/03/29 02:04:31;;;;;;;10.05;4.65;;;;;;;8.94;97.79;99205.61;1725419;82;20994;-79
2024/03/29 02:06:59;;;;;;;13.38;4.03;;;;;;;8.93;97.81;99202.58;1725501;81;21066;-79
2024/03/29 02:09:28;;;;;;;9.55;4.40;;;;;;;8.92;97.81;99203.63;1725434;83;21093;-79
2024/03/29 02:11:56;;;;;;;8.73;4.30;;;;;;;8.92;97.77;99209.62;1725388;81;21038;-80
2024/03/29 02:14:24;;;;;;;10.72;4.40;;;;;;;8.88;97.64;99213.31;1725480;83;21058;-79
2024/03/29 02:16:52;;;;;;;10.55;4.10;;;;;;;8.85;97.51;99210.48;1725312;83;21059;-80
2024/03/29 02:19:22;;;;;;;14.35;5.80;;;;;;;8.82;97.38;99201.88;1725474;81;21042;-79
2024/03/29 02:21:50;;;;;;;13.28;5.75;;;;;;;8.78;97.21;99204.73;1725679;83;21002;-79
2024/03/29 02:24:18;;;;;;;16.12;6.55;;;;;;;8.73;97.21;99203.17;1725488;81;21106;-79
2024/03/29 02:26:47;;;;;;;13.80;6.17;;;;;;;8.68;97.05;99205.71;1725631;83;21007;-79
2024/03/29 02:29:15;;;;;;;11.40;5.05;;;;;;;8.64;97.07;99203.94;1725455;82;21015;-80
2024/03/29 02:31:43;;;;;;;11.85;4.92;;;;;;;8.62;97.11;99210.14;1725434;83;21475;-79
2024/03/29 02:34:12;;;;;;;14.20;5.83;;;;;;;8.60;96.94;99210.04;1725579;83;21031;-79
2024/03/29 02:36:41;;;;;;;11.35;5.17;;;;;;;8.58;96.82;99211.09;1725522;83;21025;-79
2024/03/29 02:39:10;;;;;;;9.93;4.90;;;;;;;8.57;96.77;99209.41;1725384;81;21042;-80
2024/03/29 02:41:38;;;;;;;10.85;4.95;;;;;;;8.56;96.70;99198.19;1725441;83;21078;-79
2024/03/29 02:44:06;;;;;;;10.40;4.33;;;;;;;8.56;96.54;99202.28;1725473;83;21015;-80
2024/03/29 02:46:34;;;;;;;11.20;4.78;;;;;;;8.56;96.42;99202.28;1725319;83;21529;-80
2024/03/29 02:49:03;;;;;;;11.63;4.87;;;;;;;8.57;96.26;99200.39;1720334;82;21455;-79
2024/03/29 02:51:31;;;;;;;8.73;4.30;;;;;;;8.58;96.07;99202.06;1720277;82;21066;-79
2024/03/29 02:54:00;;;;;;;10.08;4.55;;;;;;;8.58;95.82;99199.34;1720335;83;21094;-79
2024/03/29 02:56:28;;;;;;;7.85;4.60;;;;;;;8.56;95.66;99194.61;1720266;82;21086;-80
2024/03/29 02:58:57;;;;;;;12.37;4.87;;;;;;;8.52;95.53;99202.92;1720201;83;21114;-80
2024/03/29 03:01:25;;;;;;;12.13;4.87;;;;;;;8.49;95.36;99188.33;1720396;83;21051;-80
2024/03/29 03:03:53;;;;;;;9.75;4.72;;;;;;;8.49;95.27;99201.45;1720493;82;21114;-80
2024/03/29 03:06:22;;;;;;;9.65;4.37;;;;;;;8.49;95.20;99199.25;1699991;83;21015;-79
2024/03/29 03:11:37;;;;;;;12.90;4.58;;;;;;;8.49;94.95;99189.17;1720348;83;21501;-80
2024/03/29 03:14:06;;;;;;;9.00;4.45;;;;;;;8.48;94.77;99195.69;1720312;83;21047;-80
2024/03/29 03:16:34;;;;;;;13.30;4.53;;;;;;;8.48;94.69;99200.31;1720149;83;21130;-79
2024/03/29 03:19:02;;;;;;;9.53;4.40;;;;;;;8.44;94.46;99201.75;1720132;82;21087;-79
2024/03/29 03:21:31;;;;;;;10.85;4.42;;;;;;;8.44;94.43;99205.33;1720259;83;21087;-79
2024/03/29 03:23:59;;;;;;;8.73;4.25;;;;;;;8.44;94.38;99203.95;1720197;82;21479;-79
2024/03/29 03:26:28;;;;;;;11.48;4.47;;;;;;;8.45;94.24;99209.77;1720498;83;21042;-80
2024/03/29 03:28:56;;;;;;;11.55;4.33;;;;;;;8.45;94.14;99207.03;1720445;82;21007;-80
2024/03/29 03:31:25;;;;;;;9.88;4.33;;;;;;;8.47;93.99;99206.81;1720501;82;21047;-80
2024/03/29 03:33:53;;;;;;;9.70;4.12;;;;;;;8.46;93.85;99211.44;1720284;83;21039;-78
2024/03/29 03:36:21;;;;;;;10.72;4.30;;;;;;;8.45;93.59;99214.34;1720200;82;21007;-79
2024/03/29 03:38:49;;;;;;;9.43;3.95;;;;;;;8.46;93.53;99214.17;1720405;83;21459;-80
2024/03/29 03:41:17;;;;;;;14.73;4.72;;;;;;;8.48;93.37;99212.59;1720766;82;21066;-79
2024/03/29 03:43:46;;;;;;;8.40;3.85;;;;;;;8.48;93.15;99207.97;1720256;82;21043;-81
2024/03/29 03:46:14;;;;;;;10.90;4.65;;;;;;;8.49;93.06;99204.19;1720285;83;21062;-79
2024/03/29 03:48:43;;;;;;;9.35;4.12;;;;;;;8.48;92.84;99209.33;1724125;81;21098;-79
2024/03/29 03:51:11;;;;;;;10.58;4.47;;;;;;;8.47;92.70;99209.55;1725333;83;21090;-79
2024/03/29 03:53:39;;;;;;;12.13;4.70;;;;;;;8.47;92.56;99212.28;1725629;83;21042;-80
2024/03/29 03:56:09;;;;;;;10.23;4.12;;;;;;;8.49;92.46;99205.55;1725382;82;21046;-79
2024/03/29 03:58:39;;;;;;;9.73;4.20;;;;;;;8.52;92.31;99211.11;1725475;83;21561;-79
2024/03/29 04:01:07;;;;;;;12.53;4.58;;;;;;;8.52;92.07;99208.38;1725279;81;21066;-80
2024/03/29 04:03:35;;;;;;;11.43;4.60;;;;;;;8.52;91.82;99205.65;1725311;83;21439;-79
2024/03/29 04:06:04;;;;;;;10.43;3.90;;;;;;;8.55;91.58;99197.88;1725431;83;21047;-79
2024/03/29 04:08:33;;;;;;;9.23;3.90;;;;;;;8.57;91.45;99198.50;1725386;81;21042;-79
2024/03/29 04:11:05;;;;;;;10.63;4.20;;;;;;;8.61;91.32;99199.44;1725558;83;21038;-80
2024/03/29 04:13:33;;;;;;;8.18;3.67;;;;;;;8.65;91.13;99199.31;1725466;82;21113;-79
2024/03/29 04:16:05;;;;;;;8.03;4.20;;;;;;;8.70;90.99;99204.97;1725272;82;21085;-79
2024/03/29 04:18:34;;;;;;;13.18;4.20;;;;;;;8.74;90.68;99206.22;1725461;83;21071;-78
2024/03/29 04:21:02;;;;;;;8.33;3.67;;;;;;;8.79;90.45;99200.95;1725405;82;21015;-81
2024/03/29 04:23:31;;;;;;;8.40;3.80;;;;;;;8.85;90.16;99194.63;1725443;83;21023;-80
2024/03/29 04:26:00;;;;;;;10.65;4.00;;;;;;;8.93;89.73;99201.20;1725500;83;21501;-80
2024/03/29 04:28:28;;;;;;;9.20;4.00;;;;;;;9.00;89.14;99204.75;1725357;83;21058;-80
2024/03/29 04:30:58;;;;;;;10.23;4.15;;;;;;;9.09;88.50;99212.17;1725436;82;21037;-80
2024/03/29 04:33:26;;;;;;;13.38;4.25;;;;;;;9.16;87.63;99210.27;1725458;83;21130;-79
2024/03/29 04:35:58;;;;;;;16.12;4.05;;;;;;;9.21;86.88;99204.47;1725360;83;21486;-79
2024/03/29 04:38:26;;;;;;;10.45;3.75;;;;;;;9.27;86.12;99206.86;1725366;82;21042;-80
2024/03/29 04:40:55;;;;;;;9.55;4.03;;;;;;;9.33;85.29;99216.08;1725223;81;21038;-80
2024/03/29 04:43:25;;;;;;;10.38;4.25;;;;;;;9.37;84.46;99207.75;1725561;83;21063;-79
2024/03/29 04:46:06;;;;;;;10.03;3.92;;;;;;;9.41;83.42;99215.29;1725286;82;21490;-81
2024/03/29 04:48:34;;;;;;;10.03;3.72;;;;;;;9.46;82.91;99211.89;1722483;81;21107;-79
2024/03/29 04:51:03;;;;;;;8.60;3.77;;;;;;;9.49;82.27;99215.03;1700307;83;21018;-81
2024/03/29 04:53:32;;;;;;;11.00;3.70;;;;;;;9.52;81.66;99211.02;1720213;82;21489;-80
2024/03/29 04:56:00;;;;;;;9.68;3.77;;;;;;;9.56;81.34;99212.25;1700117;83;21050;-79
2024/03/29 04:58:29;;;;;;;13.25;4.28;;;;;;;9.58;81.14;99212.03;1720391;83;21121;-80
2024/03/29 05:00:57;;;;;;;12.05;4.45;;;;;;;9.63;80.85;99223.14;1720212;82;21031;-80
2024/03/29 05:03:26;;;;;;;8.20;3.85;;;;;;;9.65;80.72;99216.92;1720279;83;21042;-80
2024/03/29 05:05:54;;;;;;;13.35;4.15;;;;;;;9.67;80.48;99224.37;1720481;83;21043;-80
2024/03/29 05:08:22;;;;;;;9.30;3.65;;;;;;;9.68;80.36;99221.42;1720519;82;21060;-80
2024/03/29 05:10:51;;;;;;;10.35;3.67;;;;;;;9.70;80.22;99225.30;1720408;83;21552;-80
2024/03/29 05:13:23;;;;;;;11.08;3.90;;;;;;;9.72;79.74;99224.02;1720231;83;21071;-80
2024/03/29 05:15:51;;;;;;;13.15;4.03;;;;;;;9.75;79.47;99226.84;1720273;83;21031;-81
2024/03/29 05:18:20;;;;;;;14.05;4.72;;;;;;;9.77;79.18;99217.39;1720243;82;21101;-80
2024/03/29 05:20:50;;;;;;;13.75;8.28;;;;;;;9.80;79.09;99226.52;1699962;83;21067;-80
2024/03/29 05:23:18;;;;;;;12.65;7.72;;;;;;;9.84;78.72;99222.81;1700703;83;21082;-80
2024/03/29 05:25:48;;;;;;;12.90;4.47;;;;;;;9.88;78.57;99223.21;1720345;82;21635;-80
2024/03/29 05:28:16;;;;;;;10.50;4.20;;;;;;;9.92;78.43;99221.70;1720434;83;21150;-81
2024/03/29 05:30:45;;;;;;;12.00;4.00;;;;;;;9.94;78.38;99221.80;1720461;83;21059;-80
2024/03/29 05:33:13;;;;;;;8.18;3.87;;;;;;;9.95;77.99;99221.26;1720225;83;21078;-80
2024/03/29 05:35:41;;;;;;;12.90;5.47;;;;;;;9.96;77.76;99208.73;1720522;83;21023;-80
2024/03/29 05:38:10;;;;;;;10.85;4.20;;;;;;;9.98;77.57;99212.61;1720310;82;21058;-80
2024/03/29 05:40:38;;;;;;;12.75;4.35;;;;;;;10.00;77.37;99214.06;1720274;83;21084;-80
2024/03/29 05:43:07;;;;;;;9.80;4.35;;;;;;;10.05;77.10;99210.13;1720540;83;21055;-81
2024/03/29 05:45:35;;;;;;;11.12;4.28;;;;;;;10.09;77.03;99196.83;1720666;82;20999;-80
2024/03/29 05:48:04;;;;;;;10.75;4.22;;;;;;;10.14;77.05;99194.26;1721495;83;21102;-80
2024/03/29 05:50:33;;;;;;;12.43;4.40;;;;;;;10.17;76.99;99194.64;1725443;83;21042;-80
2024/03/29 05:53:01;;;;;;;9.65;3.92;;;;;;;10.20;76.81;99192.52;1725522;83;21031;-81
2024/03/29 05:55:31;;;;;;;13.38;4.80;;;;;;;10.21;76.62;99206.02;1725105;83;21039;-81
2024/03/29 05:58:00;;;;;;;12.00;5.00;;;;;;;10.23;76.74;99205.26;1703318;82;21071;-80
2024/03/29 06:00:28;;;;;;;11.45;4.60;;;;;;;10.26;77.11;99180.70;1725434;83;21003;-81
2024/03/29 06:02:57;;;;;;;13.43;4.50;;;;;;;10.27;77.59;99198.27;1725606;81;21334;-80
2024/03/29 06:05:26;;;;;;;13.18;4.78;;;;;;;10.29;77.73;99187.93;1725584;82;21046;-80
2024/03/29 06:07:54;;;;;;;13.25;5.12;;;;;;;10.29;78.17;99193.41;1725426;83;21481;-80
2024/03/29 06:10:22;;;;;;;14.40;5.80;;;;;;;10.30;78.72;99228.47;1725329;83;21059;-82
2024/03/29 06:12:51;;;;;;;15.72;5.62;;;;;;;10.30;79.09;99223.83;1725543;83;21098;-81
2024/03/29 06:18:07;;;;;;;15.15;5.72;;;;;;;10.30;79.12;99229.30;1725521;82;21446;-81
2024/03/29 06:20:36;;;;;;;19.07;6.28;;;;;;;10.29;78.89;99223.52;1703424;83;21015;-81
2024/03/29 06:23:04;;;;;;;15.58;6.80;;;;;;;10.30;78.67;99251.20;1725506;81;21034;-81
2024/03/29 06:25:35;;;;;;;15.72;6.20;;;;;;;10.29;78.59;99259.11;1725577;83;21030;-79
2024/03/29 06:28:04;;;;;;;20.00;5.67;;;;;;;10.29;78.69;99259.64;1727037;81;21006;-79
2024/03/29 06:30:32;;;;;;;15.78;5.60;;;;;;;10.28;78.29;99249.22;1726234;81;21043;-79
2024/03/29 06:33:03;;;;;;;14.40;6.60;;;;;;;10.29;78.16;99265.12;1725536;83;21035;-82
2024/03/29 06:35:31;;;;;;;17.57;6.65;;;;;;;10.30;78.17;99270.37;1725340;81;21510;-79
2024/03/29 06:37:59;;;;;;;15.23;6.17;;;;;;;10.32;78.39;99265.50;1725907;83;21467;-82
2024/03/29 06:40:28;;;;;;;17.55;8.85;;;;;;;10.32;78.56;99279.20;1725725;83;21081;-81
2024/03/29 06:42:59;;;;;;;20.75;9.28;;;;;;;10.31;78.93;99281.62;1725332;82;21062;-79
2024/03/29 06:45:26;;;;;;;19.12;8.50;;;;;;;10.30;79.45;99274.47;1725705;82;21077;-81
2024/03/29 06:47:55;;;;;;;16.95;7.97;;;;;;;10.32;80.19;99270.14;1727259;83;21054;-81
2024/03/29 06:50:23;;;;;;;19.55;7.37;;;;;;;10.33;80.69;99278.66;1725483;83;21038;-81
2024/03/29 06:52:51;;;;;;;15.18;6.42;;;;;;;10.35;81.22;99289.70;1725354;83;21556;-80
2024/03/29 06:55:20;;;;;;;10.63;4.40;;;;;;;10.37;81.31;99282.63;1725325;81;21520;-80
2024/03/29 06:57:48;;;;;;;10.35;4.00;;;;;;;10.39;81.26;99290.92;1725456;81;21229;-81
2024/03/29 07:00:17;;;;;;;10.98;5.40;;;;;;;10.43;80.61;99292.72;1727150;83;21035;-80
2024/03/29 07:02:45;;;;;;;14.03;6.53;;;;;;;10.46;80.02;99291.74;1725446;83;21093;-80
2024/03/29 07:05:14;;;;;;;18.12;6.90;;;;;;;10.50;79.49;99295.40;1725327;83;21051;-78
2024/03/29 07:07:45;;;;;;;11.63;6.17;;;;;;;10.52;79.28;99299.59;1725516;83;21086;-76
2024/03/29 07:10:13;;;;;;;13.62;4.70;;;;;;;10.55;79.45;99300.52;1726884;83;21042;-76
2024/03/29 07:12:42;;;;;;;20.20;7.90;;;;;;;10.55;79.58;99305.98;1725585;83;21046;-76
2024/03/29 07:15:10;;;;;;;15.70;7.35;;;;;;;10.55;80.07;99301.05;1725542;81;21039;-76
2024/03/29 07:17:40;;;;;;;13.08;6.72;;;;;;;10.53;80.36;99306.74;1725508;83;21030;-74
2024/03/29 07:20:10;;;;;;;13.20;5.53;;;;;;;10.47;81.17;99300.27;1703340;83;21098;-74
2024/03/29 07:22:38;;;;;;;11.48;5.62;;;;;;;10.42;81.99;99297.36;1725486;83;21184;-76
2024/03/29 07:25:07;;;;;;;15.45;5.40;;;;;;;10.37;83.07;99287.58;1725360;83;21549;-76
2024/03/29 07:27:35;;;;;;;14.33;5.05;;;;;;;10.35;84.11;99293.80;1725308;83;21027;-77
2024/03/29 07:30:07;;;;;;;10.58;4.25;;;;;;;10.33;85.22;99289.09;1725485;83;21063;-76
2024/03/29 07:32:38;;;;;;;20.88;6.20;;;;;;;10.29;86.16;99282.38;1725366;81;21030;-77
2024/03/29 07:35:07;;;;;;;14.25;5.35;;;;;;;10.26;87.03;99288.30;1725677;83;21011;-76
2024/03/29 07:37:36;;;;;;;13.50;5.75;;;;;;;10.22;87.95;99276.13;1725376;83;21058;-75
2024/03/29 07:40:06;;;;;;;15.05;5.60;;;;;;;10.16;88.74;99272.34;1725527;83;21066;-77
2024/03/29 07:42:36;;;;;;;12.40;6.62;;;;;;;10.09;89.63;99275.66;1725242;83;20999;-77
2024/03/29 07:45:05;;;;;;;10.60;6.00;;;;;;;10.02;90.61;99276.77;1725385;83;21047;-78
2024/03/29 07:47:35;;;;;;;13.08;5.92;;;;;;;9.98;91.49;99279.64;1725382;82;21470;-75
2024/03/29 07:50:06;;;;;;;17.02;6.83;;;;;;;9.92;91.99;99280.53;1725292;81;21051;-76
2024/03/29 07:52:35;;;;;;;16.15;8.93;;;;;;;9.91;92.96;99298.00;1725320;83;21030;-78
2024/03/29 07:55:04;;;;;;;22.30;12.60;;;;;;;9.90;93.82;99296.33;1725183;83;21580;-79
2024/03/29 07:57:32;;;;;;;16.25;8.55;;;;;;;9.85;94.36;99301.09;1725389;81;21070;-80
2024/03/29 08:00:01;;;;;;;19.27;8.50;;;;;;;9.80;94.99;99315.43;1725437;83;21491;-79
2024/03/29 08:02:32;;;;;;;14.35;7.65;;;;;;;9.78;95.64;99310.70;1725361;83;21039;-80
2024/03/29 08:05:01;;;;;;;12.75;6.72;;;;;;;9.75;96.31;99306.17;1725437;82;21473;-78
2024/03/29 08:07:32;;;;;;;14.00;6.83;;;;;;;9.74;97.00;99300.39;1725696;83;21050;-79
2024/03/29 08:10:01;;;;;;;11.57;6.72;;;;;;;9.71;97.56;99285.26;1725390;82;21034;-80
2024/03/29 08:12:29;;;;;;;11.08;6.08;;;;;;;9.72;98.20;99289.67;1725404;81;21066;-80
2024/03/29 08:14:58;;;;;;;14.28;5.22;;;;;;;9.69;98.68;99276.44;1725373;83;21467;-80
2024/03/29 08:17:26;;;;;;;16.48;5.87;;;;;;;9.66;99.11;99279.61;1725429;83;21082;-79
2024/03/29 08:19:55;;;;;;;12.33;5.60;;;;;;;9.65;99.68;99277.93;1725317;81;21426;-79
2024/03/29 08:22:23;;;;;;;12.15;6.20;;;;;;;9.59;100.00;99269.23;1725600;81;21027;-79
2024/03/29 08:24:52;;;;;;;15.08;6.60;;;;;;;9.57;100.00;99263.14;1703334;83;21233;-81
2024/03/29 08:27:20;;;;;;;15.18;6.45;;;;;;;9.56;100.00;99267.47;1725406;83;21078;-82
2024/03/29 08:29:50;;;;;;;18.35;7.62;;;;;;;9.55;100.00;99270.73;1725670;83;21107;-80
2024/03/29 08:32:18;;;;;;;15.88;7.00;;;;;;;9.52;100.00;99261.07;1725289;83;21078;-81
2024/03/29 08:34:48;;;;;;;13.30;6.95;;;;;;;9.51;100.00;99252.56;1725479;83;21102;-78
2024/03/29 08:37:17;;;;;;;18.35;8.05;;;;;;;9.51;100.00;99271.70;1725592;81;21070;-78
2024/03/29 08:39:46;;;;;;;20.95;8.83;;;;;;;9.50;100.00;99273.28;1727139;83;21007;-82
2024/03/29 08:42:16;;;;;;;16.20;8.98;;;;;;;9.48;100.00;99252.16;1725472;82;21027;-80
2024/03/29 08:44:44;;;;;;;19.82;9.05;;;;;;;9.47;100.00;99246.37;1725498;83;21042;-81
2024/03/29 08:47:13;;;;;;;19.50;10.95;;;;;;;9.42;100.00;99243.47;1725472;83;21009;-80
2024/03/29 08:49:42;;;;;;;24.20;12.20;;;;;;;9.42;100.00;99227.90;1725374;83;21066;-81
2024/03/29 08:52:10;;;;;;;31.40;15.65;;;;;;;9.43;100.00;99223.27;1751719;81;21063;-80
2024/03/29 08:54:39;;;;;;;30.55;16.15;;;;;;;9.46;100.00;99239.23;1725326;83;21490;-82
2024/03/29 08:57:07;;;;;;;32.50;15.78;;;;;;;9.49;100.00;99237.43;1725424;82;21068;-84
2024/03/29 08:59:37;;;;;;;34.23;17.05;;;;;;;9.47;100.00;99239.55;1727545;81;21083;-83
2024/03/29 09:02:08;;;;;;;33.65;18.32;;;;;;;9.48;100.00;99224.81;1715323;83;21007;-85
2024/03/29 09:04:36;;;;;;;35.60;18.42;;;;;;;9.48;100.00;99226.19;1727545;82;21078;-85
2024/03/29 09:07:05;;;;;;;37.38;19.07;;;;;;;9.47;100.00;99224.51;1725221;83;21533;-83
2024/03/29 09:09:34;;;;;;;32.25;18.07;;;;;;;9.50;100.00;99218.59;1722348;82;21062;-84
2024/03/29 09:12:03;;;;;;;42.33;20.45;;;;;;;9.48;100.00;99209.78;1701025;82;21039;-83
2024/03/29 09:14:31;;;;;;;39.23;19.82;;;;;;;9.51;100.00;99215.65;1724880;82;21052;-83
2024/03/29 09:17:02;;;;;;;35.58;20.32;;;;;;;9.52;100.00;99213.75;1696540;84;21045;-84
2024/03/29 09:19:31;;;;;;;42.73;23.80;;;;;;;9.55;100.00;99214.67;1696415;84;21077;-82
2024/03/29 09:21:59;;;;;;;41.45;20.90;;;;;;;9.54;100.00;99214.38;1696313;84;21094;-83
2024/03/29 09:24:28;;;;;;;37.05;19.35;;;;;;;9.52;100.00;99213.22;1696174;83;21093;-82
2024/03/29 09:26:57;;;;;;;35.58;18.25;;;;;;;9.51;100.00;99214.28;1696516;84;21026;-83
2024/03/29 09:29:25;;;;;;;37.53;20.17;;;;;;;9.50;100.00;99220.80;1696437;84;21102;-83
2024/03/29 09:31:54;;;;;;;34.13;18.65;;;;;;;9.52;100.00;99224.16;1699627;83;21061;-82
2024/03/29 09:34:23;;;;;;;35.08;19.85;;;;;;;9.53;100.00;99222.27;1724816;83;21011;-84
2024/03/29 09:36:51;;;;;;;36.80;20.08;;;;;;;9.54;100.00;99211.63;1724655;83;21587;-84
2024/03/29 09:39:20;;;;;;;30.72;17.52;;;;;;;9.59;100.00;99214.55;1724860;83;21019;-84
2024/03/29 09:41:48;;;;;;;29.98;18.10;;;;;;;9.66;100.00;99208.50;1725300;83;21478;-81
2024/03/29 09:44:17;;;;;;;32.00;18.00;;;;;;;9.70;100.00;99213.84;1726665;83;21062;-83
2024/03/29 09:46:46;;;;;;;33.33;18.20;;;;;;;9.82;100.00;99214.83;1724944;83;21462;-82
2024/03/29 09:49:14;;;;;;;34.18;18.70;;;;;;;9.91;100.00;99208.55;1721734;83;21027;-82
2024/03/29 09:51:43;;;;;;;32.63;18.00;;;;;;;9.93;100.00;99205.07;1670939;86;21051;-83
2024/03/29 09:54:13;;;;;;;26.93;17.07;;;;;;;10.01;100.00;99216.27;1699643;84;21079;-82
2024/03/29 09:56:41;;;;;;;29.40;17.75;;;;;;;10.06;100.00;99215.91;1709435;82;21087;-81
2024/03/29 09:59:10;;;;;;;28.47;17.42;;;;;;;10.08;100.00;99208.84;1730280;82;21027;-82
2024/03/29 10:01:39;;;;;;;31.23;18.15;;;;;;;10.12;100.00;99210.91;1708294;84;21091;-82
2024/03/29 10:04:07;;;;;;;29.00;18.10;;;;;;;10.16;100.00;99209.39;1709820;84;21067;-83
2024/03/29 10:06:38;;;;;;;29.95;18.25;;;;;;;10.24;100.00;99212.94;1705914;84;21024;-84
2024/03/29 10:09:09;;;;;;;33.20;19.32;;;;;;;10.31;100.00;99211.81;1699198;84;21468;-83
2024/03/29 10:11:37;;;;;;;33.40;18.77;;;;;;;10.39;100.00;99207.41;1698964;84;21111;-83
2024/03/29 10:14:05;;;;;;;38.10;20.05;;;;;;;10.46;100.00;99213.70;1698959;84;21083;-79
2024/03/29 10:16:34;;;;;;;33.78;18.82;;;;;;;10.53;100.00;99218.27;1709140;83;21103;-84
2024/03/29 10:19:03;;;;;;;32.00;18.75;;;;;;;10.69;100.00;99214.41;1710713;83;21474;-86
2024/03/29 10:21:33;;;;;;;31.27;17.55;;;;;;;10.76;100.00;99221.17;1711093;84;21059;-86
2024/03/29 10:24:13;;;;;;;33.30;18.40;;;;;;;10.77;100.00;99218.73;1693804;84;21099;-85
2024/03/29 10:26:45;;;;;;;33.78;19.27;;;;;;;10.69;100.00;99229.47;1709935;83;21063;-80
2024/03/29 10:29:14;;;;;;;30.65;18.65;;;;;;;10.63;100.00;99224.06;1691944;84;21048;-84
2024/03/29 10:31:42;;;;;;;29.27;17.62;;;;;;;10.59;100.00;99226.41;1710283;84;21027;-85
2024/03/29 10:34:11;;;;;;;31.70;18.20;;;;;;;10.56;100.00;99224.66;1708974;84;21016;-85
2024/03/29 10:36:39;;;;;;;30.92;16.87;;;;;;;10.56;100.00;99244.67;1709492;84;21075;-84
2024/03/29 10:39:11;;;;;;;34.70;19.82;;;;;;;10.54;100.00;99250.06;1691307;84;21036;-82
2024/03/29 10:41:43;;;;;;;35.00;19.85;;;;;;;10.48;100.00;99263.60;1708722;83;21067;-83
2024/03/29 10:44:12;;;;;;;36.30;21.87;;;;;;;10.46;100.00;99258.05;1709571;84;21035;-87
2024/03/29 10:46:47;;;;;;;40.55;27.25;;;;;;;10.46;100.00;99242.45;1708662;84;21545;-84
2024/03/29 10:49:11;;;;;;;41.02;26.35;;;;;;;10.50;100.00;99243.37;1713367;83;21023;-84
2024/03/29 10:51:40;;;;;;;44.33;27.37;;;;;;;10.51;100.00;99245.87;1739162;82;21017;-82
2024/03/29 10:54:11;;;;;;;43.28;25.80;;;;;;;10.52;100.00;99242.61;1739493;82;21073;-85
2024/03/29 10:56:44;;;;;;;38.85;24.65;;;;;;;10.53;100.00;99251.97;1739534;82;21028;-85
2024/03/29 10:59:38;;;;;;;42.75;27.30;;;;;;;10.51;100.00;99247.78;1739309;82;21662;-85
2024/03/29 11:02:13;;;;;;;42.48;26.33;;;;;;;10.53;100.00;99251.13;1738830;82;21453;-82
2024/03/29 11:04:43;;;;;;;47.70;27.13;;;;;;;10.58;100.00;99256.77;1739412;82;21025;-84
2024/03/29 11:07:17;;;;;;;43.45;27.07;;;;;;;10.63;100.00;99262.41;1728118;82;21452;-82
2024/03/29 11:09:45;;;;;;;40.12;25.08;;;;;;;10.66;100.00;99265.53;1719899;83;21538;-82
2024/03/29 11:12:13;;;;;;;38.35;24.32;;;;;;;10.69;100.00;99274.67;1720073;83;21051;-86
2024/03/29 11:14:50;;;;;;;44.63;27.52;;;;;;;10.75;100.00;99278.41;1720164;83;21059;-86
2024/03/29 11:17:18;;;;;;;47.30;27.37;;;;;;;10.81;100.00;99285.72;1720038;83;21483;-84
2024/03/29 11:19:47;;;;;;;41.58;26.07;;;;;;;10.85;100.00;99282.83;1719788;83;21756;-80
2024/03/29 11:22:16;;;;;;;42.75;24.12;;;;;;;10.87;100.00;99290.29;1719942;83;21549;-85
2024/03/29 11:24:44;;;;;;;41.10;24.63;;;;;;;10.90;100.00;99287.63;1719715;83;21070;-85
2024/03/29 11:27:13;;;;;;;41.73;24.10;;;;;;;10.92;100.00;99301.41;1719887;83;21023;-84
2024/03/29 11:29:45;;;;;;;39.38;25.57;;;;;;;10.92;100.00;99294.56;1637685;85;21082;-86
2024/03/29 11:32:15;;;;;;;45.38;26.50;;;;;;;10.88;100.00;99296.08;1723395;83;21460;-86
2024/03/29 11:34:45;;;;;;;41.45;25.65;;;;;;;10.86;100.00;99302.84;1719870;83;21194;-85
2024/03/29 11:37:15;;;;;;;42.43;25.17;;;;;;;10.84;100.00;99306.34;1686908;85;21146;-84
2024/03/29 11:39:49;;;;;;;42.48;25.75;;;;;;;10.83;100.00;99310.98;1700428;83;21555;-84